createdAt,value
2022-09-11T00:01:44.799Z,9.40
2022-09-11T00:04:13.114Z,9.10
2022-09-11T00:06:41.525Z,9.10
2022-09-11T00:09:11.552Z,9.30
2022-09-11T00:11:42.833Z,9.60
2022-09-11T00:14:14.571Z,9.10
2022-09-11T00:16:46.167Z,9.03
2022-09-11T00:19:18.978Z,9.30
2022-09-11T00:21:47.797Z,9.20
2022-09-11T00:24:17.908Z,9.33
2022-09-11T00:26:47.879Z,9.50
2022-09-11T00:29:16.360Z,9.30
2022-09-11T00:31:44.850Z,9.20
2022-09-11T00:34:13.526Z,9.40
2022-09-11T00:36:43.250Z,9.20
2022-09-11T00:39:12.920Z,9.00
2022-09-11T00:41:44.945Z,9.23
2022-09-11T00:45:00.887Z,9.50
2022-09-11T00:48:49.295Z,9.30
2022-09-11T00:51:24.688Z,9.17
2022-09-11T00:53:55.962Z,9.20
2022-09-11T00:56:25.935Z,9.20
2022-09-11T00:58:57.443Z,9.40
2022-09-11T01:01:26.139Z,9.40
2022-09-11T01:03:56.101Z,9.20
2022-09-11T01:06:25.574Z,8.90
2022-09-11T01:08:54.015Z,9.20
2022-09-11T01:11:42.606Z,9.27
2022-09-11T01:14:34.309Z,9.30
2022-09-11T01:17:30.743Z,9.10
2022-09-11T01:20:32.500Z,9.57
2022-09-11T01:24:00.684Z,9.20
2022-09-11T01:27:17.384Z,9.20
2022-09-11T01:29:53.426Z,9.60
2022-09-11T01:32:26.039Z,9.10
2022-09-11T01:35:01.876Z,9.40
2022-09-11T01:37:38.671Z,9.40
2022-09-11T01:40:15.204Z,9.10
2022-09-11T01:42:46.071Z,9.60
2022-09-11T01:45:17.650Z,9.20
2022-09-11T01:47:49.548Z,9.70
2022-09-11T01:50:20.641Z,9.10
2022-09-11T01:52:54.418Z,9.37
2022-09-11T01:55:28.995Z,9.50
2022-09-11T01:58:06.623Z,9.20
2022-09-11T02:00:40.223Z,9.23
2022-09-11T02:03:15.375Z,9.53
2022-09-11T02:05:48.016Z,8.87
2022-09-11T02:08:28.985Z,9.47
2022-09-11T02:11:04.263Z,9.13
2022-09-11T02:13:38.765Z,9.50
2022-09-11T02:16:21.639Z,9.27
2022-09-11T02:19:00.698Z,9.50
2022-09-11T02:21:29.435Z,9.10
2022-09-11T02:23:58.371Z,9.07
2022-09-11T02:26:29.329Z,9.43
2022-09-11T02:28:58.221Z,9.20
2022-09-11T02:31:28.376Z,9.20
2022-09-11T02:33:58.877Z,9.30
2022-09-11T02:36:48.835Z,8.90
2022-09-11T02:39:34.903Z,9.20
2022-09-11T02:42:25.875Z,9.30
2022-09-11T02:45:07.208Z,9.10
2022-09-11T02:47:48.488Z,9.10
2022-09-11T02:50:27.698Z,9.30
2022-09-11T02:53:03.540Z,9.60
2022-09-11T02:55:44.651Z,9.10
2022-09-11T02:58:20.792Z,9.20
2022-09-11T03:00:50.380Z,8.90
2022-09-11T03:03:21.229Z,9.40
2022-09-11T03:05:49.741Z,9.10
2022-09-11T03:08:18.873Z,9.13
2022-09-11T03:10:50.014Z,9.40
2022-09-11T03:13:18.717Z,9.07
2022-09-11T03:15:48.574Z,9.30
2022-09-11T03:18:19.169Z,8.80
2022-09-11T03:20:47.950Z,9.40
2022-09-11T03:23:16.604Z,9.30
2022-09-11T03:25:45.091Z,9.10
2022-09-11T03:28:13.890Z,9.07
2022-09-11T03:30:44.793Z,9.20
2022-09-11T03:33:13.454Z,9.07
2022-09-11T03:35:44.739Z,9.27
2022-09-11T03:38:13.912Z,9.20
2022-09-11T03:40:44.067Z,9.20
2022-09-11T03:43:13.246Z,9.73
2022-09-11T03:45:41.648Z,9.10
2022-09-11T03:48:10.626Z,9.00
2022-09-11T03:50:41.386Z,9.20
2022-09-11T03:53:11.991Z,9.30
2022-09-11T03:55:40.343Z,9.13
2022-09-11T03:58:09.753Z,8.90
2022-09-11T04:00:44.170Z,9.10
2022-09-11T04:03:12.842Z,9.30
2022-09-11T04:05:46.189Z,9.23
2022-09-11T04:08:15.899Z,9.53
2022-09-11T04:11:08.342Z,9.10
2022-09-11T04:13:41.223Z,9.03
2022-09-11T04:16:17.106Z,9.30
2022-09-11T04:18:49.539Z,9.30
2022-09-11T04:21:19.763Z,9.20
2022-09-11T04:23:56.584Z,9.10
2022-09-11T04:26:29.204Z,8.97
2022-09-11T04:29:02.990Z,9.30
2022-09-11T04:31:31.506Z,9.30
2022-09-11T04:34:00.385Z,9.30
2022-09-11T04:36:32.923Z,9.07
2022-09-11T04:39:03.126Z,9.00
2022-09-11T04:41:32.201Z,8.93
2022-09-11T04:44:05.453Z,9.20
2022-09-11T04:46:37.548Z,9.10
2022-09-11T04:49:10.854Z,9.10
2022-09-11T04:51:41.595Z,9.20
2022-09-11T04:54:17.962Z,9.30
2022-09-11T04:56:47.104Z,9.10
2022-09-11T04:59:19.632Z,9.00
2022-09-11T05:02:08.207Z,9.00
2022-09-11T05:04:41.693Z,9.20
2022-09-11T05:07:13.481Z,9.10
2022-09-11T05:09:45.403Z,9.27
2022-09-11T05:12:13.972Z,9.20
2022-09-11T05:14:42.319Z,9.20
2022-09-11T05:17:13.518Z,9.30
2022-09-11T05:19:43.653Z,9.10
2022-09-11T05:22:12.175Z,9.23
2022-09-11T05:24:47.037Z,9.57
2022-09-11T05:27:15.448Z,8.90
2022-09-11T05:29:44.171Z,9.33
2022-09-11T05:32:14.503Z,9.20
2022-09-11T05:34:43.650Z,9.30
2022-09-11T05:37:15.399Z,9.20
2022-09-11T05:39:51.876Z,9.20
2022-09-11T05:42:22.173Z,9.33
2022-09-11T05:44:54.580Z,12.33
2022-09-11T05:47:24.293Z,9.30
2022-09-11T05:49:56.458Z,9.20
2022-09-11T05:52:25.624Z,9.20
2022-09-11T05:54:56.749Z,9.20
2022-09-11T05:57:25.168Z,9.30
2022-09-11T05:59:53.532Z,10.00
2022-09-11T06:02:21.892Z,10.07
2022-09-11T06:04:54.124Z,10.20
2022-09-11T06:07:26.852Z,10.17
2022-09-11T06:10:00.990Z,10.70
2022-09-11T06:12:32.213Z,10.10
2022-09-11T06:15:00.886Z,10.60
2022-09-11T06:17:29.426Z,10.77
2022-09-11T06:19:57.926Z,10.97
2022-09-11T06:22:27.385Z,10.90
2022-09-11T06:24:57.144Z,11.80
2022-09-11T06:27:25.640Z,11.10
2022-09-11T06:29:55.514Z,11.13
2022-09-11T06:32:24.157Z,11.37
2022-09-11T06:34:53.556Z,12.17
2022-09-11T06:37:21.953Z,10.97
2022-09-11T06:39:50.720Z,11.40
2022-09-11T06:42:26.065Z,11.80
2022-09-11T06:44:54.513Z,10.93
2022-09-11T06:47:22.968Z,11.50
2022-09-11T06:49:53.434Z,11.10
2022-09-11T06:52:39.704Z,11.13
2022-09-11T06:55:14.544Z,11.00
2022-09-11T06:57:50.450Z,11.10
2022-09-11T07:00:23.946Z,10.63
2022-09-11T07:02:53.051Z,10.90
2022-09-11T07:05:22.482Z,11.67
2022-09-11T07:07:53.033Z,11.07
2022-09-11T07:10:21.582Z,10.90
2022-09-11T07:12:58.013Z,10.80
2022-09-11T07:15:26.752Z,10.30
2022-09-11T07:17:55.508Z,11.57
2022-09-11T07:20:23.906Z,10.67
2022-09-11T07:22:52.311Z,11.20
2022-09-11T07:25:22.171Z,10.60
2022-09-11T07:27:51.961Z,10.80
2022-09-11T07:30:23.059Z,10.67
2022-09-11T07:32:55.344Z,10.73
2022-09-11T07:35:24.019Z,10.97
2022-09-11T07:37:54.380Z,10.60
2022-09-11T07:40:26.989Z,11.20
2022-09-11T07:42:55.427Z,11.10
2022-09-11T07:45:28.282Z,11.70
2022-09-11T07:47:57.512Z,11.33
2022-09-11T07:50:26.877Z,11.90
2022-09-11T07:52:56.515Z,11.33
2022-09-11T07:55:25.357Z,10.97
2022-09-11T07:57:55.283Z,10.87
2022-09-11T08:00:26.134Z,11.00
2022-09-11T08:03:09.955Z,11.13
2022-09-11T08:05:39.735Z,12.50
2022-09-11T08:08:12.022Z,12.10
2022-09-11T08:10:41.133Z,11.50
2022-09-11T08:13:11.612Z,12.50
2022-09-11T08:15:48.486Z,12.07
2022-09-11T08:18:17.146Z,11.30
2022-09-11T08:20:45.864Z,11.27
2022-09-11T08:23:15.348Z,11.80
2022-09-11T08:25:44.670Z,11.50
2022-09-11T08:28:13.009Z,10.90
2022-09-11T08:30:42.751Z,11.27
2022-09-11T08:33:13.209Z,11.73
2022-09-11T08:35:41.538Z,11.80
2022-09-11T08:38:09.850Z,12.10
2022-09-11T08:40:39.968Z,11.47
2022-09-11T08:43:20.950Z,11.07
2022-09-11T08:45:53.166Z,11.97
2022-09-11T08:48:33.058Z,11.53
2022-09-11T08:51:01.518Z,11.40
2022-09-11T08:53:33.901Z,11.53
2022-09-11T08:56:09.983Z,11.50
2022-09-11T08:58:50.379Z,11.53
2022-09-11T09:01:29.763Z,11.17
2022-09-11T09:04:23.467Z,12.20
2022-09-11T09:07:04.443Z,11.30
2022-09-11T09:09:44.194Z,11.80
2022-09-11T09:12:26.119Z,11.97
2022-09-11T09:15:35.963Z,12.03
2022-09-11T09:18:13.012Z,11.20
2022-09-11T09:20:46.124Z,11.57
2022-09-11T09:23:21.168Z,11.20
2022-09-11T09:25:52.797Z,11.40
2022-09-11T09:28:24.849Z,10.73
2022-09-11T09:30:58.070Z,11.57
2022-09-11T09:33:34.653Z,11.07
2022-09-11T09:36:16.810Z,10.90
2022-09-11T09:38:47.092Z,11.03
2022-09-11T09:41:49.639Z,11.47
2022-09-11T09:44:31.202Z,11.40
2022-09-11T09:46:59.547Z,10.83
2022-09-11T09:49:32.410Z,10.37
2022-09-11T09:52:12.199Z,10.20
2022-09-11T09:54:41.260Z,9.97
2022-09-11T09:57:12.769Z,13.57
2022-09-11T09:59:48.921Z,10.00
2022-09-11T10:02:40.270Z,10.53
2022-09-11T10:05:20.903Z,10.20
2022-09-11T10:07:52.541Z,9.93
2022-09-11T10:10:31.562Z,9.77
2022-09-11T10:13:18.740Z,9.70
2022-09-11T10:15:50.657Z,9.67
2022-09-11T10:18:43.939Z,9.67
2022-09-11T10:21:26.035Z,9.67
2022-09-11T10:23:56.753Z,9.47
2022-09-11T10:26:30.388Z,9.70
2022-09-11T10:29:07.751Z,9.70
2022-09-11T10:31:37.280Z,9.70
2022-09-11T10:34:06.209Z,9.50
2022-09-11T10:36:36.068Z,9.60
2022-09-11T10:39:04.689Z,9.43
2022-09-11T10:41:34.867Z,9.40
2022-09-11T10:44:05.523Z,9.80
2022-09-11T10:46:40.207Z,10.43
2022-09-11T10:49:17.777Z,9.63
2022-09-11T10:52:03.023Z,9.97
2022-09-11T10:54:45.923Z,9.60
2022-09-11T10:57:23.542Z,9.60
2022-09-11T11:00:08.243Z,9.70
2022-09-11T11:02:40.964Z,10.07
2022-09-11T11:05:24.588Z,10.43
2022-09-11T11:08:24.294Z,9.60
2022-09-11T11:11:14.876Z,10.03
2022-09-11T11:14:13.294Z,10.00
2022-09-11T11:16:53.735Z,9.67
2022-09-11T11:19:43.442Z,10.30
2022-09-11T11:22:26.600Z,10.93
2022-09-11T11:25:09.259Z,13.50
2022-09-11T11:28:07.566Z,15.13
2022-09-11T11:30:43.204Z,14.87
2022-09-11T11:33:47.017Z,15.77
2022-09-11T11:36:27.207Z,13.90
2022-09-11T11:39:02.117Z,12.97
2022-09-11T11:41:36.499Z,12.80
2022-09-11T11:44:07.792Z,14.33
2022-09-11T11:46:40.891Z,16.67
2022-09-11T11:49:16.157Z,12.70
2022-09-11T11:51:52.832Z,16.43
2022-09-11T11:54:26.866Z,14.17
2022-09-11T11:57:06.005Z,13.40
2022-09-11T11:59:43.759Z,14.67
2022-09-11T12:02:21.551Z,15.93
2022-09-11T12:04:56.902Z,14.57
2022-09-11T12:07:29.200Z,13.53
2022-09-11T12:09:59.807Z,13.17
2022-09-11T12:12:34.529Z,13.60
2022-09-11T12:15:07.980Z,12.90
2022-09-11T12:17:38.363Z,14.73
2022-09-11T12:20:32.568Z,12.77
2022-09-11T12:23:01.753Z,12.90
2022-09-11T12:26:22.192Z,12.30
2022-09-11T12:29:51.595Z,13.03
2022-09-11T12:32:44.572Z,13.97
2022-09-11T12:35:38.235Z,13.10
2022-09-11T12:38:21.944Z,16.90
2022-09-11T12:40:55.040Z,12.43
2022-09-11T12:43:49.246Z,19.53
2022-09-11T12:47:11.945Z,15.10
2022-09-11T12:49:43.912Z,14.03
2022-09-11T12:52:32.103Z,13.23
2022-09-11T12:55:06.716Z,13.93
2022-09-11T12:57:38.115Z,13.23
2022-09-11T13:00:11.838Z,13.67
2022-09-11T13:02:43.548Z,17.30
2022-09-11T13:05:23.779Z,12.23
2022-09-11T13:07:57.981Z,12.67
2022-09-11T13:10:36.338Z,14.17
2022-09-11T13:13:45.202Z,13.70
2022-09-11T13:16:23.835Z,12.60
2022-09-11T13:18:53.776Z,12.33
2022-09-11T13:21:26.507Z,12.57
2022-09-11T13:23:56.777Z,15.27
2022-09-11T13:26:31.341Z,12.47
2022-09-11T13:29:01.785Z,11.73
2022-09-11T13:31:35.651Z,12.33
2022-09-11T13:34:08.058Z,12.63
2022-09-11T13:36:38.458Z,12.53
2022-09-11T13:39:08.167Z,12.80
2022-09-11T13:41:43.770Z,11.70
2022-09-11T13:44:28.934Z,12.50
2022-09-11T13:46:57.308Z,12.03
2022-09-11T13:49:36.324Z,11.80
2022-09-11T13:52:07.850Z,13.73
2022-09-11T13:54:38.797Z,14.10
2022-09-11T13:57:18.589Z,14.63
2022-09-11T13:59:49.972Z,13.13
2022-09-11T14:02:49.544Z,11.93
2022-09-11T14:05:22.038Z,12.93
2022-09-11T14:08:01.584Z,11.77
2022-09-11T14:10:33.182Z,11.90
2022-09-11T14:13:10.991Z,11.23
2022-09-11T14:15:42.509Z,11.93
2022-09-11T14:18:26.549Z,11.97
2022-09-11T14:20:56.153Z,11.00
2022-09-11T14:23:28.671Z,13.87
2022-09-11T14:26:21.762Z,11.17
2022-09-11T14:29:03.518Z,11.10
2022-09-11T14:31:37.090Z,12.53
2022-09-11T14:34:18.532Z,11.20
2022-09-11T14:36:54.820Z,10.70
2022-09-11T14:39:32.954Z,11.27
2022-09-11T14:42:01.877Z,11.50
2022-09-11T14:44:32.845Z,10.50
2022-09-11T14:47:01.200Z,10.77
2022-09-11T14:49:29.585Z,10.37
2022-09-11T14:52:00.714Z,10.50
2022-09-11T14:54:32.122Z,11.20
2022-09-11T14:57:01.385Z,10.73
2022-09-11T14:59:30.162Z,10.80
2022-09-11T15:01:59.590Z,10.63
2022-09-11T15:04:29.662Z,10.37
2022-09-11T15:06:59.852Z,10.70
2022-09-11T15:09:29.640Z,10.10
2022-09-11T15:11:58.234Z,10.10
2022-09-11T15:14:52.371Z,11.10
2022-09-11T15:17:20.134Z,10.13
2022-09-11T15:19:50.250Z,10.10
2022-09-11T15:22:19.503Z,9.83
2022-09-11T15:24:49.888Z,10.60
2022-09-11T15:27:19.256Z,10.43
2022-09-11T15:29:47.674Z,9.90
2022-09-11T15:32:15.983Z,9.80
2022-09-11T15:34:45.337Z,9.90
2022-09-11T15:37:13.634Z,9.77
2022-09-11T15:39:41.984Z,9.70
2022-09-11T15:42:12.581Z,9.83
2022-09-11T15:44:40.884Z,10.10
2022-09-11T15:47:09.291Z,10.13
2022-09-11T15:49:41.998Z,9.70
2022-09-11T15:52:10.288Z,9.57
2022-09-11T15:54:38.836Z,10.10
2022-09-11T15:57:07.453Z,10.40
2022-09-11T15:59:37.051Z,10.30
2022-09-11T16:02:05.504Z,10.30
2022-09-11T16:04:34.828Z,10.13
2022-09-11T16:07:03.332Z,9.90
2022-09-11T16:09:33.729Z,9.90
2022-09-11T16:12:02.911Z,9.80
2022-09-11T16:14:34.024Z,9.97
2022-09-11T16:17:05.682Z,9.80
2022-09-11T16:19:34.919Z,9.70
2022-09-11T16:22:07.033Z,9.63
2022-09-11T16:24:37.848Z,10.50
2022-09-11T16:27:09.042Z,10.20
2022-09-11T16:30:15.672Z,10.00
2022-09-11T16:32:31.842Z,9.80
2022-09-11T16:35:00.320Z,10.20
2022-09-11T16:37:32.150Z,9.93
2022-09-11T16:40:02.005Z,9.80
2022-09-11T16:42:30.765Z,10.00
2022-09-11T16:44:59.035Z,9.83
2022-09-11T16:47:30.420Z,9.80
2022-09-11T16:50:07.320Z,9.80
2022-09-11T16:52:39.146Z,9.50
2022-09-11T16:55:11.121Z,9.60
2022-09-11T16:57:40.593Z,9.40
2022-09-11T17:00:11.879Z,9.60
2022-09-11T17:02:41.828Z,9.70
2022-09-11T17:05:12.625Z,9.80
2022-09-11T17:07:41.950Z,9.33
2022-09-11T17:10:11.703Z,9.33
2022-09-11T17:12:40.033Z,9.30
2022-09-11T17:15:10.450Z,9.30
2022-09-11T17:17:38.871Z,9.40
2022-09-11T17:20:11.773Z,9.73
2022-09-11T17:22:40.794Z,9.60
2022-09-11T17:25:09.742Z,9.57
2022-09-11T17:27:38.024Z,9.30
2022-09-11T17:30:07.715Z,9.37
2022-09-11T17:32:36.022Z,9.63
2022-09-11T17:35:04.730Z,9.10
2022-09-11T17:37:34.536Z,9.33
2022-09-11T17:40:03.275Z,9.33
2022-09-11T17:42:32.418Z,9.17
2022-09-11T17:45:02.490Z,9.30
2022-09-11T17:47:33.076Z,9.50
2022-09-11T17:50:02.450Z,9.23
2022-09-11T17:52:33.140Z,9.20
2022-09-11T17:55:02.799Z,9.43
2022-09-11T17:57:32.332Z,9.50
2022-09-11T18:00:00.924Z,9.50
2022-09-11T18:02:29.339Z,9.40
2022-09-11T18:04:57.603Z,9.70
2022-09-11T18:07:25.965Z,9.60
2022-09-11T18:09:56.467Z,9.77
2022-09-11T18:12:28.686Z,9.90
2022-09-11T18:15:17.654Z,9.80
2022-09-11T18:17:47.734Z,11.20
2022-09-11T18:20:17.772Z,20.77
2022-09-11T18:22:46.069Z,22.63
2022-09-11T18:25:14.891Z,18.90
2022-09-11T18:27:44.643Z,15.90
2022-09-11T18:30:13.228Z,16.93
2022-09-11T18:32:41.541Z,14.10
2022-09-11T18:35:10.958Z,13.50
2022-09-11T18:37:39.769Z,12.40
2022-09-11T18:40:09.271Z,11.80
2022-09-11T18:42:37.642Z,12.03
2022-09-11T18:45:09.609Z,12.73
2022-09-11T18:47:38.132Z,10.80
2022-09-11T18:50:07.641Z,11.57
2022-09-11T18:52:36.713Z,10.60
2022-09-11T18:55:05.932Z,10.53
2022-09-11T18:57:38.687Z,10.97
2022-09-11T19:00:15.473Z,10.70
2022-09-11T19:02:44.577Z,10.43
2022-09-11T19:05:15.486Z,10.23
2022-09-11T19:07:44.293Z,10.33
2022-09-11T19:10:13.479Z,10.00
2022-09-11T19:12:42.860Z,13.27
2022-09-11T19:15:13.398Z,9.63
2022-09-11T19:17:42.143Z,9.97
2022-09-11T19:20:12.184Z,10.00
2022-09-11T19:22:40.466Z,9.73
2022-09-11T19:25:10.492Z,9.90
2022-09-11T19:27:38.806Z,10.33
2022-09-11T19:30:08.763Z,10.37
2022-09-11T19:32:38.537Z,10.47
2022-09-11T19:35:07.524Z,10.13
2022-09-11T19:37:35.857Z,10.20
2022-09-11T19:40:07.047Z,10.40
2022-09-11T19:42:35.470Z,10.40
2022-09-11T19:45:05.830Z,9.97
2022-09-11T19:47:34.224Z,10.17
2022-09-11T19:50:06.190Z,10.60
2022-09-11T19:52:35.145Z,10.63
2022-09-11T19:55:03.929Z,10.63
2022-09-11T19:57:32.301Z,11.93
2022-09-11T20:00:00.675Z,11.30
2022-09-11T20:02:29.286Z,11.10
2022-09-11T20:04:57.555Z,12.13
2022-09-11T20:07:27.455Z,11.30
2022-09-11T20:09:56.456Z,10.80
2022-09-11T20:12:24.839Z,10.33
2022-09-11T20:14:53.143Z,10.80
2022-09-11T20:17:21.451Z,10.77
2022-09-11T20:19:49.691Z,10.90
2022-09-11T20:22:20.189Z,10.87
2022-09-11T20:24:51.324Z,10.50
2022-09-11T20:27:19.868Z,10.50
2022-09-11T20:29:48.178Z,10.27
2022-09-11T20:32:18.539Z,9.80
2022-09-11T20:34:47.514Z,10.00
2022-09-11T20:37:16.397Z,10.00
2022-09-11T20:39:45.320Z,10.40
2022-09-11T20:42:15.452Z,10.23
2022-09-11T20:44:45.401Z,9.80
2022-09-11T20:47:14.396Z,10.40
2022-09-11T20:49:43.868Z,10.03
2022-09-11T20:52:14.194Z,10.40
2022-09-11T20:54:44.026Z,9.73
2022-09-11T20:57:12.527Z,10.03
2022-09-11T20:59:43.526Z,9.90
2022-09-11T21:02:14.805Z,10.37
2022-09-11T21:04:43.591Z,10.00
2022-09-11T21:07:12.555Z,9.90
2022-09-11T21:09:41.001Z,9.90
2022-09-11T21:12:10.720Z,10.00
2022-09-11T21:14:39.218Z,9.80
2022-09-11T21:17:09.033Z,9.97
2022-09-11T21:19:37.718Z,9.80
2022-09-11T21:22:06.194Z,10.10
2022-09-11T21:24:35.216Z,10.03
2022-09-11T21:27:03.475Z,9.83
2022-09-11T21:29:32.411Z,10.17
2022-09-11T21:32:01.166Z,10.30
2022-09-11T21:34:31.149Z,10.23
2022-09-11T21:36:59.820Z,10.50
2022-09-11T21:39:28.148Z,10.30
2022-09-11T21:41:57.008Z,9.73
2022-09-11T21:44:25.736Z,9.93
2022-09-11T21:46:54.781Z,9.90
2022-09-11T21:49:25.034Z,9.80
2022-09-11T21:51:55.491Z,9.80
2022-09-11T21:54:26.777Z,10.07
2022-09-11T21:56:58.162Z,10.37
2022-09-11T21:59:27.831Z,9.93
2022-09-11T22:01:57.113Z,9.70
2022-09-11T22:04:25.964Z,9.80
2022-09-11T22:06:57.025Z,9.80
2022-09-11T22:09:25.671Z,10.20
2022-09-11T22:11:56.802Z,10.23
2022-09-11T22:14:28.732Z,9.70
2022-09-11T22:16:57.404Z,9.97
2022-09-11T22:19:26.128Z,10.10
2022-09-11T22:21:56.460Z,10.13
2022-09-11T22:24:25.042Z,10.40
2022-09-11T22:26:53.606Z,10.10
2022-09-11T22:29:21.970Z,9.70
2022-09-11T22:31:50.303Z,10.23
2022-09-11T22:34:18.580Z,10.20
2022-09-11T22:36:46.916Z,10.70
2022-09-11T22:39:16.577Z,9.80
2022-09-11T22:41:45.367Z,9.83
2022-09-11T22:44:13.887Z,10.40
2022-09-11T22:46:45.720Z,9.70
2022-09-11T22:49:16.858Z,10.07
2022-09-11T22:51:45.157Z,9.70
2022-09-11T22:54:14.680Z,9.90
2022-09-11T22:56:44.992Z,9.97
2022-09-11T22:59:13.313Z,10.10
2022-09-11T23:01:41.647Z,9.83
2022-09-11T23:04:10.039Z,10.00
2022-09-11T23:06:55.803Z,10.20
2022-09-11T23:09:24.120Z,10.10
2022-09-11T23:11:55.648Z,10.07
2022-09-11T23:14:24.115Z,9.90
2022-09-11T23:16:52.408Z,10.57
2022-09-11T23:19:20.728Z,10.47
2022-09-11T23:21:49.074Z,9.97
2022-09-11T23:24:17.365Z,9.90
2022-09-11T23:26:46.616Z,9.80
2022-09-11T23:29:16.353Z,9.70
2022-09-11T23:31:45.290Z,10.50
2022-09-11T23:34:17.222Z,10.00
2022-09-11T23:36:46.007Z,10.20
2022-09-11T23:39:14.494Z,10.10
2022-09-11T23:41:42.781Z,10.07
2022-09-11T23:44:11.786Z,10.30
2022-09-11T23:46:42.234Z,10.03
2022-09-11T23:49:12.328Z,9.77
2022-09-11T23:51:41.665Z,10.27
2022-09-11T23:54:10.027Z,10.23
2022-09-11T23:56:38.380Z,10.10
2022-09-11T23:59:06.635Z,9.90
